Terminal Aerodrome Forecast
Issued by NWS Charleston, WV

Current Version | Previous Version | Graphics & Text | Print | Product List | Glossary On
Versions: 1 2 3 4 5 6 7 8 9 10 11 12 13 14 15 16 17 18 19 20 21 22 23 24 25
178
FTUS41 KRLX 131743
TAFHTS
TAF
KHTS 131743Z 1318/1418 03006KT P6SM OVC015
     FM132200 04007KT 5SM -RA OVC015
      TEMPO 1401/1402 2SM -RA OVC008
     FM140300 05005KT 5SM -RA OVC008
     FM140700 05006KT 2SM -RA OVC004=

USA.gov is the U.S. government's official web portal to all federal, state and local government web resources and services.